createdAt,value
2022-08-30T00:01:40.838Z,17.20
2022-08-30T00:11:45.990Z,17.00
2022-08-30T00:21:49.778Z,16.90
2022-08-30T00:31:54.812Z,16.80
2022-08-30T00:41:58.500Z,16.70
2022-08-30T00:52:05.203Z,16.60
2022-08-30T01:02:10.800Z,16.60
2022-08-30T01:12:19.247Z,16.70
2022-08-30T01:22:29.575Z,16.60
2022-08-30T01:32:42.874Z,16.50
2022-08-30T01:42:47.126Z,16.40
2022-08-30T01:52:52.470Z,16.30
2022-08-30T02:02:58.043Z,16.30
2022-08-30T02:13:08.614Z,16.20
2022-08-30T02:23:12.438Z,16.10
2022-08-30T02:33:17.694Z,16.10
2022-08-30T02:43:21.839Z,16.10
2022-08-30T02:53:31.069Z,16.00
2022-08-30T03:03:39.362Z,15.90
2022-08-30T03:13:44.496Z,16.10
2022-08-30T03:23:50.972Z,15.70
2022-08-30T03:33:56.142Z,15.50
2022-08-30T03:44:00.291Z,15.50
2022-08-30T03:54:06.506Z,15.50
2022-08-30T04:04:10.321Z,15.80
2022-08-30T04:14:17.647Z,15.70
2022-08-30T04:24:21.392Z,15.70
2022-08-30T04:34:26.508Z,15.50
2022-08-30T04:44:31.341Z,15.20
2022-08-30T04:54:36.448Z,15.00
2022-08-30T05:05:02.706Z,15.00
2022-08-30T05:15:12.804Z,15.30
2022-08-30T05:25:18.600Z,15.50
2022-08-30T05:35:25.869Z,15.70
2022-08-30T05:45:29.861Z,15.70
2022-08-30T05:55:37.471Z,15.80
2022-08-30T06:05:41.408Z,15.70
2022-08-30T06:15:47.149Z,15.90
2022-08-30T06:25:51.183Z,16.30
2022-08-30T06:35:58.322Z,16.50
2022-08-30T06:46:04.082Z,16.70
2022-08-30T06:56:16.640Z,17.30
2022-08-30T07:06:24.293Z,17.80
2022-08-30T07:16:30.020Z,18.20
2022-08-30T07:26:37.923Z,18.70
2022-08-30T07:36:57.910Z,18.90
2022-08-30T07:47:02.476Z,19.10
2022-08-30T07:57:07.766Z,19.60
2022-08-30T08:07:12.049Z,19.80
2022-08-30T08:17:19.258Z,20.40
2022-08-30T08:27:24.679Z,20.60
2022-08-30T08:37:38.181Z,20.70
2022-08-30T08:48:06.402Z,21.20
2022-08-30T08:58:24.076Z,21.70
2022-08-30T09:08:28.291Z,22.20
2022-08-30T09:18:51.407Z,22.20
2022-08-30T09:28:59.974Z,22.30
2022-08-30T09:39:08.648Z,22.80
2022-08-30T09:49:35.376Z,23.00
2022-08-30T09:59:50.068Z,23.50
2022-08-30T10:10:01.732Z,24.00
2022-08-30T10:20:19.355Z,24.20
2022-08-30T10:30:24.135Z,24.50
2022-08-30T10:40:51.674Z,24.90
2022-08-30T10:51:00.109Z,25.00
2022-08-30T11:01:56.146Z,25.30
2022-08-30T11:12:34.891Z,25.50
2022-08-30T11:22:39.970Z,25.80
2022-08-30T11:33:02.927Z,25.90
2022-08-30T11:43:55.544Z,26.10
2022-08-30T11:54:12.853Z,26.50
2022-08-30T12:04:38.445Z,26.40
2022-08-30T12:15:03.312Z,26.70
2022-08-30T12:25:23.212Z,26.60
2022-08-30T12:35:29.412Z,26.70
2022-08-30T12:45:41.513Z,26.90
2022-08-30T12:55:55.247Z,27.20
2022-08-30T13:06:07.380Z,27.40
2022-08-30T13:16:29.582Z,27.60
2022-08-30T13:26:41.056Z,27.70
2022-08-30T13:36:50.442Z,27.90
2022-08-30T13:47:32.209Z,27.90
2022-08-30T14:07:50.731Z,28.10
2022-08-30T14:17:54.589Z,27.90
2022-08-30T14:28:09.622Z,28.30
2022-08-30T14:38:15.782Z,28.20
2022-08-30T14:48:27.239Z,28.50
2022-08-30T14:58:34.415Z,28.20
2022-08-30T15:08:40.470Z,28.10
2022-08-30T15:18:44.440Z,28.40
2022-08-30T15:28:49.743Z,28.40
2022-08-30T15:38:55.779Z,28.20
2022-08-30T15:49:04.588Z,28.30
2022-08-30T15:59:08.462Z,28.70
2022-08-30T16:09:14.808Z,28.90
2022-08-30T16:19:18.572Z,28.90
2022-08-30T16:29:41.506Z,28.60
2022-08-30T16:39:46.867Z,27.90
2022-08-30T16:49:52.172Z,27.50
2022-08-30T16:59:55.970Z,27.40
2022-08-30T17:10:03.775Z,27.50
2022-08-30T17:20:10.718Z,27.80
2022-08-30T17:30:19.168Z,28.30
2022-08-30T17:40:23.252Z,28.20
2022-08-30T17:50:28.420Z,27.90
2022-08-30T18:00:37.094Z,26.90
2022-08-30T18:10:43.899Z,26.50
2022-08-30T18:20:49.122Z,26.10
2022-08-30T18:30:56.850Z,25.80
2022-08-30T18:41:03.359Z,25.40
2022-08-30T18:51:11.835Z,25.10
2022-08-30T19:01:20.710Z,25.00
2022-08-30T19:11:27.870Z,24.60
2022-08-30T19:21:32.339Z,24.50
2022-08-30T19:31:38.603Z,24.30
2022-08-30T19:41:43.002Z,24.00
2022-08-30T19:51:48.414Z,24.00
2022-08-30T20:01:53.580Z,23.70
2022-08-30T20:12:01.358Z,23.50
2022-08-30T20:22:08.358Z,23.30
2022-08-30T20:32:15.073Z,23.10
2022-08-30T20:42:21.526Z,22.90
2022-08-30T20:52:26.655Z,22.70
2022-08-30T21:02:31.477Z,22.30
2022-08-30T21:12:37.979Z,21.90
2022-08-30T21:22:41.723Z,21.60
2022-08-30T21:32:46.792Z,21.40
2022-08-30T21:42:50.567Z,21.20
2022-08-30T21:52:55.639Z,21.00
2022-08-30T22:03:02.118Z,21.00
2022-08-30T22:13:10.013Z,20.80
2022-08-30T22:23:24.439Z,20.70
2022-08-30T22:33:32.739Z,20.60
2022-08-30T22:43:36.512Z,20.60
2022-08-30T22:53:48.111Z,20.60
2022-08-30T23:03:52.673Z,20.50
2022-08-30T23:13:57.970Z,20.40
2022-08-30T23:24:19.368Z,20.40
2022-08-30T23:34:41.756Z,20.40
2022-08-30T23:45:03.639Z,20.40
2022-08-30T23:55:58.838Z,20.50
